sensor_id;sensor_type;location;lat;lon;timestamp;pressure;altitude;pressure_sealevel;temperature;humidity
71857;BME280;63344;46.980;28.882;2023-04-23T00:01:36;100727.31;;;7.05;83.25
71857;BME280;63344;46.980;28.882;2023-04-23T00:04:07;100715.00;;;7.04;83.24
71857;BME280;63344;46.980;28.882;2023-04-23T00:06:36;100724.66;;;7.05;83.12
71857;BME280;63344;46.980;28.882;2023-04-23T00:09:04;100721.13;;;7.06;83.34
71857;BME280;63344;46.980;28.882;2023-04-23T00:11:33;100714.09;;;7.05;83.30
71857;BME280;63344;46.980;28.882;2023-04-23T00:14:00;100724.66;;;7.05;83.22
71857;BME280;63344;46.980;28.882;2023-04-23T00:16:28;100726.31;;;7.09;83.64
71857;BME280;63344;46.980;28.882;2023-04-23T00:18:55;100723.66;;;7.10;83.66
71857;BME280;63344;46.980;28.882;2023-04-23T00:21:22;100724.50;;;7.12;84.24
71857;BME280;63344;46.980;28.882;2023-04-23T00:23:50;100724.41;;;7.17;84.36
71857;BME280;63344;46.980;28.882;2023-04-23T00:26:17;100715.72;;;7.12;84.29
71857;BME280;63344;46.980;28.882;2023-04-23T00:28:44;100720.94;;;7.15;84.23
71857;BME280;63344;46.980;28.882;2023-04-23T00:31:12;100719.13;;;7.17;84.05
71857;BME280;63344;46.980;28.882;2023-04-23T00:33:39;100721.81;;;7.14;84.28
71857;BME280;63344;46.980;28.882;2023-04-23T00:36:07;100714.84;;;7.11;84.12
71857;BME280;63344;46.980;28.882;2023-04-23T00:38:34;100717.47;;;7.13;83.78
71857;BME280;63344;46.980;28.882;2023-04-23T00:41:01;100728.78;;;7.16;83.96
71857;BME280;63344;46.980;28.882;2023-04-23T00:43:29;100719.13;;;7.17;83.70
71857;BME280;63344;46.980;28.882;2023-04-23T00:45:59;100719.06;;;7.18;83.54
71857;BME280;63344;46.980;28.882;2023-04-23T00:48:26;100719.19;;;7.14;83.50
71857;BME280;63344;46.980;28.882;2023-04-23T00:50:58;100719.97;;;7.17;83.47
71857;BME280;63344;46.980;28.882;2023-04-23T00:53:26;100722.53;;;7.21;83.58
71857;BME280;63344;46.980;28.882;2023-04-23T00:55:54;100723.44;;;7.21;83.67
71857;BME280;63344;46.980;28.882;2023-04-23T00:58:22;100725.97;;;7.24;83.73
71857;BME280;63344;46.980;28.882;2023-04-23T01:00:49;100714.56;;;7.24;83.91
71857;BME280;63344;46.980;28.882;2023-04-23T01:03:19;100719.75;;;7.27;84.25
71857;BME280;63344;46.980;28.882;2023-04-23T01:05:48;100726.81;;;7.26;84.11
71857;BME280;63344;46.980;28.882;2023-04-23T01:08:16;100718.97;;;7.23;84.42
71857;BME280;63344;46.980;28.882;2023-04-23T01:10:46;100729.53;;;7.23;84.56
71857;BME280;63344;46.980;28.882;2023-04-23T01:13:14;100718.97;;;7.23;85.06
71857;BME280;63344;46.980;28.882;2023-04-23T01:15:43;100716.38;;;7.22;85.27
71857;BME280;63344;46.980;28.882;2023-04-23T01:18:11;100726.91;;;7.23;84.86
71857;BME280;63344;46.980;28.882;2023-04-23T01:20:39;100716.38;;;7.22;85.00
71857;BME280;63344;46.980;28.882;2023-04-23T01:23:07;100716.38;;;7.20;84.91
71857;BME280;63344;46.980;28.882;2023-04-23T01:25:34;100712.06;;;7.17;84.86
71857;BME280;63344;46.980;28.882;2023-04-23T01:28:01;100714.75;;;7.14;84.72
71857;BME280;63344;46.980;28.882;2023-04-23T01:30:29;100715.69;;;7.13;85.04
71857;BME280;63344;46.980;28.882;2023-04-23T01:32:57;100719.22;;;7.11;84.96
71857;BME280;63344;46.980;28.882;2023-04-23T01:35:25;100709.72;;;7.05;85.48
71857;BME280;63344;46.980;28.882;2023-04-23T01:37:52;100711.44;;;7.06;85.33
71857;BME280;63344;46.980;28.882;2023-04-23T01:40:21;100713.22;;;7.04;85.34
71857;BME280;63344;46.980;28.882;2023-04-23T01:42:48;100708.06;;;7.00;85.63
71857;BME280;63344;46.980;28.882;2023-04-23T01:45:15;100707.25;;;6.96;85.78
71857;BME280;63344;46.980;28.882;2023-04-23T01:47:46;100711.72;;;6.94;85.71
71857;BME280;63344;46.980;28.882;2023-04-23T01:50:16;100714.31;;;6.95;86.26
71857;BME280;63344;46.980;28.882;2023-04-23T01:52:43;100713.47;;;6.95;85.97
71857;BME280;63344;46.980;28.882;2023-04-23T01:55:11;100711.72;;;6.94;85.95
71857;BME280;63344;46.980;28.882;2023-04-23T01:57:39;100707.31;;;6.93;86.07
71857;BME280;63344;46.980;28.882;2023-04-23T02:00:09;100710.03;;;6.90;86.44
71857;BME280;63344;46.980;28.882;2023-04-23T02:02:42;100709.22;;;6.88;86.24
71857;BME280;63344;46.980;28.882;2023-04-23T02:05:15;100709.25;;;6.85;86.13
71857;BME280;63344;46.980;28.882;2023-04-23T02:07:48;100711.91;;;6.85;86.40
71857;BME280;63344;46.980;28.882;2023-04-23T02:10:16;100706.69;;;6.83;86.02
71857;BME280;63344;46.980;28.882;2023-04-23T02:12:44;100718.13;;;6.82;86.20
71857;BME280;63344;46.980;28.882;2023-04-23T02:15:12;100720.75;;;6.82;85.69
71857;BME280;63344;46.980;28.882;2023-04-23T02:17:40;100715.56;;;6.79;85.87
71857;BME280;63344;46.980;28.882;2023-04-23T02:20:09;100721.75;;;6.78;85.68
71857;BME280;63344;46.980;28.882;2023-04-23T02:22:39;100715.59;;;6.77;85.68
71857;BME280;63344;46.980;28.882;2023-04-23T02:25:07;100721.75;;;6.76;85.73
71857;BME280;63344;46.980;28.882;2023-04-23T02:27:35;100722.66;;;6.77;85.95
71857;BME280;63344;46.980;28.882;2023-04-23T02:30:03;100717.31;;;6.78;86.79
71857;BME280;63344;46.980;28.882;2023-04-23T02:32:30;100715.59;;;6.77;87.05
71857;BME280;63344;46.980;28.882;2023-04-23T02:34:58;100720.00;;;6.77;86.66
71857;BME280;63344;46.980;28.882;2023-04-23T02:37:25;100715.66;;;6.74;86.86
71857;BME280;63344;46.980;28.882;2023-04-23T02:39:53;100721.84;;;6.73;87.02
71857;BME280;63344;46.980;28.882;2023-04-23T02:42:20;100724.53;;;6.70;87.18
71857;BME280;63344;46.980;28.882;2023-04-23T02:44:47;100729.00;;;6.67;87.55
71857;BME280;63344;46.980;28.882;2023-04-23T02:47:14;100729.94;;;6.64;87.42
71857;BME280;63344;46.980;28.882;2023-04-23T02:49:42;100724.78;;;6.58;87.29
71857;BME280;63344;46.980;28.882;2023-04-23T02:52:09;100727.53;;;6.53;87.38
71857;BME280;63344;46.980;28.882;2023-04-23T02:54:37;100733.69;;;6.54;87.74
71857;BME280;63344;46.980;28.882;2023-04-23T02:57:05;100734.63;;;6.51;88.05
71857;BME280;63344;46.980;28.882;2023-04-23T02:59:32;100734.63;;;6.51;88.15
71857;BME280;63344;46.980;28.882;2023-04-23T03:01:59;100739.00;;;6.51;88.40
71857;BME280;63344;46.980;28.882;2023-04-23T03:04:26;100736.38;;;6.51;88.57
71857;BME280;63344;46.980;28.882;2023-04-23T03:06:55;100737.31;;;6.48;88.13
71857;BME280;63344;46.980;28.882;2023-04-23T03:09:22;100739.09;;;6.48;88.67
71857;BME280;63344;46.980;28.882;2023-04-23T03:11:50;100734.66;;;6.48;88.63
71857;BME280;63344;46.980;28.882;2023-04-23T03:14:19;100739.91;;;6.50;88.27
71857;BME280;63344;46.980;28.882;2023-04-23T03:16:46;100735.53;;;6.49;88.26
71857;BME280;63344;46.980;28.882;2023-04-23T03:19:14;100736.44;;;6.48;88.29
71857;BME280;63344;46.980;28.882;2023-04-23T03:21:41;100741.69;;;6.49;88.52
71857;BME280;63344;46.980;28.882;2023-04-23T03:24:11;100737.28;;;6.50;88.43
71857;BME280;63344;46.980;28.882;2023-04-23T03:26:38;100739.00;;;6.51;88.50
71857;BME280;63344;46.980;28.882;2023-04-23T03:29:06;100745.19;;;6.50;88.41
71857;BME280;63344;46.980;28.882;2023-04-23T03:31:33;100748.66;;;6.52;88.57
71857;BME280;63344;46.980;28.882;2023-04-23T03:34:01;100747.75;;;6.53;88.98
71857;BME280;63344;46.980;28.882;2023-04-23T03:36:28;100746.88;;;6.54;88.64
71857;BME280;63344;46.980;28.882;2023-04-23T03:38:56;100755.66;;;6.54;89.01
71857;BME280;63344;46.980;28.882;2023-04-23T03:41:23;100756.47;;;6.58;88.72
71857;BME280;63344;46.980;28.882;2023-04-23T03:43:50;100758.94;;;6.66;89.21
71857;BME280;63344;46.980;28.882;2023-04-23T03:46:17;100758.66;;;6.81;90.11
71857;BME280;63344;46.980;28.882;2023-04-23T03:48:44;100762.72;;;6.94;90.64
71857;BME280;63344;46.980;28.882;2023-04-23T03:51:12;100773.09;;;7.05;90.41
71857;BME280;63344;46.980;28.882;2023-04-23T03:53:39;100767.69;;;7.10;89.83
71857;BME280;63344;46.980;28.882;2023-04-23T03:56:06;100764.19;;;7.09;89.00
71857;BME280;63344;46.980;28.882;2023-04-23T03:58:34;100774.66;;;7.12;88.54
71857;BME280;63344;46.980;28.882;2023-04-23T04:01:01;100767.56;;;7.16;88.33
71857;BME280;63344;46.980;28.882;2023-04-23T04:03:28;100769.25;;;7.18;87.63
71857;BME280;63344;46.980;28.882;2023-04-23T04:05:55;100774.50;;;7.20;87.42
71857;BME280;63344;46.980;28.882;2023-04-23T04:08:25;100770.91;;;7.23;87.13
71857;BME280;63344;46.980;28.882;2023-04-23T04:10:52;100777.00;;;7.26;86.64
71857;BME280;63344;46.980;28.882;2023-04-23T04:13:20;100765.50;;;7.29;86.75
71857;BME280;63344;46.980;28.882;2023-04-23T04:15:47;100774.25;;;7.31;86.40
71857;BME280;63344;46.980;28.882;2023-04-23T04:18:14;100779.53;;;7.31;86.71
71857;BME280;63344;46.980;28.882;2023-04-23T04:20:43;100782.13;;;7.34;87.02
71857;BME280;63344;46.980;28.882;2023-04-23T04:23:12;100792.53;;;7.40;86.95
71857;BME280;63344;46.980;28.882;2023-04-23T04:25:41;100790.69;;;7.45;87.28
71857;BME280;63344;46.980;28.882;2023-04-23T04:28:18;100791.50;;;7.47;86.61
71857;BME280;63344;46.980;28.882;2023-04-23T04:30:46;100788.75;;;7.52;86.37
71857;BME280;63344;46.980;28.882;2023-04-23T04:33:17;100787.72;;;7.59;86.17
71857;BME280;63344;46.980;28.882;2023-04-23T04:35:46;100796.34;;;7.66;86.00
71857;BME280;63344;46.980;28.882;2023-04-23T04:38:16;100790.06;;;7.71;86.29
71857;BME280;63344;46.980;28.882;2023-04-23T04:40:43;100796.09;;;7.76;86.07
71857;BME280;63344;46.980;28.882;2023-04-23T04:43:10;100802.16;;;7.80;85.57
71857;BME280;63344;46.980;28.882;2023-04-23T04:45:37;100802.09;;;7.83;85.71
71857;BME280;63344;46.980;28.882;2023-04-23T04:48:05;100809.09;;;7.86;85.72
71857;BME280;63344;46.980;28.882;2023-04-23T04:50:32;100805.47;;;7.90;85.26
71857;BME280;63344;46.980;28.882;2023-04-23T04:52:59;100814.19;;;7.93;85.04
71857;BME280;63344;46.980;28.882;2023-04-23T04:55:26;100814.84;;;8.03;84.97
71857;BME280;63344;46.980;28.882;2023-04-23T04:57:54;100818.06;;;8.14;85.17
71857;BME280;63344;46.980;28.882;2023-04-23T05:00:25;100822.19;;;8.25;84.79
71857;BME280;63344;46.980;28.882;2023-04-23T05:02:58;100827.28;;;8.32;84.25
71857;BME280;63344;46.980;28.882;2023-04-23T05:05:26;100831.53;;;8.40;83.50
71857;BME280;63344;46.980;28.882;2023-04-23T05:07:54;100818.03;;;8.50;83.64
71857;BME280;63344;46.980;28.882;2023-04-23T05:10:21;100819.50;;;8.61;83.69
71857;BME280;63344;46.980;28.882;2023-04-23T05:12:48;100813.13;;;8.69;83.73
71857;BME280;63344;46.980;28.882;2023-04-23T05:15:17;100805.78;;;8.79;83.60
71857;BME280;63344;46.980;28.882;2023-04-23T05:17:45;100808.97;;;8.90;83.50
71857;BME280;63344;46.980;28.882;2023-04-23T05:20:12;100813.97;;;9.01;83.68
71857;BME280;63344;46.980;28.882;2023-04-23T05:22:41;100819.94;;;9.08;82.94
71857;BME280;63344;46.980;28.882;2023-04-23T05:25:10;100821.44;;;9.16;81.97
71857;BME280;63344;46.980;28.882;2023-04-23T05:27:40;100821.34;;;9.21;81.23
71857;BME280;63344;46.980;28.882;2023-04-23T05:30:08;100815.84;;;9.27;81.01
71857;BME280;63344;46.980;28.882;2023-04-23T05:32:37;100823.47;;;9.38;80.60
71857;BME280;63344;46.980;28.882;2023-04-23T05:35:05;100819.59;;;9.48;79.90
71857;BME280;63344;46.980;28.882;2023-04-23T05:37:33;100820.00;;;9.64;79.26
71857;BME280;63344;46.980;28.882;2023-04-23T05:40:01;100818.88;;;9.71;79.32
71857;BME280;63344;46.980;28.882;2023-04-23T05:42:28;100824.84;;;9.78;78.89
71857;BME280;63344;46.980;28.882;2023-04-23T05:44:56;100820.16;;;9.86;78.68
71857;BME280;63344;46.980;28.882;2023-04-23T05:47:23;100822.31;;;10.02;78.18
71857;BME280;63344;46.980;28.882;2023-04-23T05:49:51;100826.09;;;10.21;77.95
71857;BME280;63344;46.980;28.882;2023-04-23T05:52:18;100832.53;;;10.41;78.06
71857;BME280;63344;46.980;28.882;2023-04-23T05:54:45;100830.16;;;10.58;76.94
71857;BME280;63344;46.980;28.882;2023-04-23T05:57:13;100834.09;;;10.71;76.72
71857;BME280;63344;46.980;28.882;2023-04-23T05:59:40;100827.47;;;10.83;76.49
71857;BME280;63344;46.980;28.882;2023-04-23T06:02:09;100834.13;;;10.95;76.42
71857;BME280;63344;46.980;28.882;2023-04-23T06:04:37;100831.25;;;11.01;76.24
71857;BME280;63344;46.980;28.882;2023-04-23T06:07:05;100833.72;;;11.06;75.70
71857;BME280;63344;46.980;28.882;2023-04-23T06:09:32;100832.69;;;11.10;74.96
71857;BME280;63344;46.980;28.882;2023-04-23T06:12:00;100839.34;;;11.22;73.75
71857;BME280;63344;46.980;28.882;2023-04-23T06:14:28;100832.63;;;11.35;72.89
71857;BME280;63344;46.980;28.882;2023-04-23T06:16:56;100839.31;;;11.45;72.73
71857;BME280;63344;46.980;28.882;2023-04-23T06:19:25;100834.38;;;11.58;71.15
71857;BME280;63344;46.980;28.882;2023-04-23T06:21:54;100831.41;;;11.66;69.75
71857;BME280;63344;46.980;28.882;2023-04-23T06:24:21;100839.09;;;11.73;69.26
71857;BME280;63344;46.980;28.882;2023-04-23T06:26:48;100838.78;;;11.81;67.33
71857;BME280;63344;46.980;28.882;2023-04-23T06:29:15;100842.72;;;11.94;66.91
71857;BME280;63344;46.980;28.882;2023-04-23T06:31:43;100844.88;;;12.07;66.48
71857;BME280;63344;46.980;28.882;2023-04-23T06:34:10;100840.16;;;12.13;64.35
71857;BME280;63344;46.980;28.882;2023-04-23T06:36:37;100842.44;;;12.23;65.60
71857;BME280;63344;46.980;28.882;2023-04-23T06:39:04;100840.31;;;12.31;65.08
71857;BME280;63344;46.980;28.882;2023-04-23T06:41:32;100843.47;;;12.41;63.55
71857;BME280;63344;46.980;28.882;2023-04-23T06:44:01;100843.94;;;12.50;62.19
71857;BME280;63344;46.980;28.882;2023-04-23T06:46:38;100847.06;;;12.60;61.36
71857;BME280;63344;46.980;28.882;2023-04-23T06:49:10;100848.41;;;12.70;60.63
71857;BME280;63344;46.980;28.882;2023-04-23T06:51:38;100845.44;;;12.77;60.06
71857;BME280;63344;46.980;28.882;2023-04-23T06:54:05;100847.69;;;12.86;59.75
71857;BME280;63344;46.980;28.882;2023-04-23T06:56:32;100842.75;;;12.97;59.96
71857;BME280;63344;46.980;28.882;2023-04-23T06:58:59;100845.72;;;13.10;59.16
71857;BME280;63344;46.980;28.882;2023-04-23T07:01:29;100850.56;;;13.21;58.47
71857;BME280;63344;46.980;28.882;2023-04-23T07:03:57;100843.91;;;13.31;58.19
71857;BME280;63344;46.980;28.882;2023-04-23T07:06:26;100844.47;;;13.38;57.66
71857;BME280;63344;46.980;28.882;2023-04-23T07:08:53;100843.03;;;13.49;56.88
71857;BME280;63344;46.980;28.882;2023-04-23T07:11:21;100845.34;;;13.57;57.02
71857;BME280;63344;46.980;28.882;2023-04-23T07:13:49;100852.97;;;13.65;56.40
71857;BME280;63344;46.980;28.882;2023-04-23T07:16:16;100844.53;;;13.74;57.18
71857;BME280;63344;46.980;28.882;2023-04-23T07:18:48;100852.88;;;13.85;56.34
71857;BME280;63344;46.980;28.882;2023-04-23T07:21:17;100857.13;;;13.89;56.61
71857;BME280;63344;46.980;28.882;2023-04-23T07:23:44;100846.00;;;13.99;57.04
71857;BME280;63344;46.980;28.882;2023-04-23T07:26:12;100849.00;;;14.10;57.33
71857;BME280;63344;46.980;28.882;2023-04-23T07:28:39;100848.41;;;14.22;57.08
71857;BME280;63344;46.980;28.882;2023-04-23T07:31:07;100845.25;;;14.31;57.32
71857;BME280;63344;46.980;28.882;2023-04-23T07:33:34;100849.03;;;14.45;56.90
71857;BME280;63344;46.980;28.882;2023-04-23T07:36:02;100851.94;;;14.58;56.35
71857;BME280;63344;46.980;28.882;2023-04-23T07:38:30;100848.09;;;14.63;55.60
71857;BME280;63344;46.980;28.882;2023-04-23T07:40:57;100853.91;;;14.71;55.41
71857;BME280;63344;46.980;28.882;2023-04-23T07:43:25;100850.75;;;14.81;55.24
71857;BME280;63344;46.980;28.882;2023-04-23T07:45:56;100844.75;;;14.93;55.88
71857;BME280;63344;46.980;28.882;2023-04-23T07:48:25;100843.75;;;15.11;55.36
71857;BME280;63344;46.980;28.882;2023-04-23T07:50:53;100850.19;;;15.25;54.84
71857;BME280;63344;46.980;28.882;2023-04-23T07:53:20;100844.91;;;15.39;53.71
71857;BME280;63344;46.980;28.882;2023-04-23T07:55:47;100842.44;;;15.52;52.45
71857;BME280;63344;46.980;28.882;2023-04-23T07:58:14;100841.25;;;15.58;52.09
71857;BME280;63344;46.980;28.882;2023-04-23T08:00:43;100836.91;;;15.71;52.71
71857;BME280;63344;46.980;28.882;2023-04-23T08:03:10;100829.84;;;15.86;52.29
71857;BME280;63344;46.980;28.882;2023-04-23T08:05:38;100834.56;;;15.97;52.54
71857;BME280;63344;46.980;28.882;2023-04-23T08:08:07;100839.06;;;16.12;51.54
71857;BME280;63344;46.980;28.882;2023-04-23T08:10:36;100844.25;;;16.29;51.83
71857;BME280;63344;46.980;28.882;2023-04-23T08:13:08;100833.78;;;16.41;51.79
71857;BME280;63344;46.980;28.882;2023-04-23T08:15:37;100840.91;;;16.56;51.39
71857;BME280;63344;46.980;28.882;2023-04-23T08:18:04;100826.41;;;16.89;50.93
71857;BME280;63344;46.980;28.882;2023-04-23T08:20:34;100825.63;;;17.86;49.63
71857;BME280;63344;46.980;28.882;2023-04-23T08:23:01;100825.31;;;18.96;47.56
71857;BME280;63344;46.980;28.882;2023-04-23T08:25:36;100829.19;;;19.92;45.05
71857;BME280;63344;46.980;28.882;2023-04-23T08:28:05;100818.81;;;20.80;44.56
71857;BME280;63344;46.980;28.882;2023-04-23T08:30:34;100827.06;;;21.46;40.49
71857;BME280;63344;46.980;28.882;2023-04-23T08:33:04;100820.13;;;21.76;39.58
71857;BME280;63344;46.980;28.882;2023-04-23T08:35:31;100826.13;;;22.23;40.18
71857;BME280;63344;46.980;28.882;2023-04-23T08:37:59;100818.16;;;23.06;39.47
71857;BME280;63344;46.980;28.882;2023-04-23T08:40:30;100819.50;;;23.72;37.99
71857;BME280;63344;46.980;28.882;2023-04-23T08:43:18;100823.97;;;23.92;37.44
71857;BME280;63344;46.980;28.882;2023-04-23T08:46:00;100820.16;;;24.04;36.33
71857;BME280;63344;46.980;28.882;2023-04-23T08:48:29;100829.72;;;24.09;37.07
71857;BME280;63344;46.980;28.882;2023-04-23T08:51:01;100815.00;;;24.50;35.84
71857;BME280;63344;46.980;28.882;2023-04-23T08:53:28;100811.56;;;25.05;35.85
71857;BME280;63344;46.980;28.882;2023-04-23T08:55:58;100804.69;;;25.11;32.62
71857;BME280;63344;46.980;28.882;2023-04-23T08:58:26;100806.63;;;24.91;32.12
71857;BME280;63344;46.980;28.882;2023-04-23T09:00:54;100808.44;;;24.90;32.24
71857;BME280;63344;46.980;28.882;2023-04-23T09:03:24;100806.44;;;24.92;30.92
71857;BME280;63344;46.980;28.882;2023-04-23T09:05:54;100807.94;;;24.77;30.11
71857;BME280;63344;46.980;28.882;2023-04-23T09:08:22;100808.28;;;24.44;31.74
71857;BME280;63344;46.980;28.882;2023-04-23T09:10:51;100809.28;;;24.53;33.06
71857;BME280;63344;46.980;28.882;2023-04-23T09:13:18;100793.44;;;24.86;33.35
71857;BME280;63344;46.980;28.882;2023-04-23T09:15:50;100803.75;;;25.30;31.09
71857;BME280;63344;46.980;28.882;2023-04-23T09:18:18;100800.66;;;25.70;31.89
71857;BME280;63344;46.980;28.882;2023-04-23T09:20:46;100798.66;;;25.72;31.71
71857;BME280;63344;46.980;28.882;2023-04-23T09:23:20;100795.56;;;25.57;28.10
71857;BME280;63344;46.980;28.882;2023-04-23T09:26:07;100797.03;;;25.24;29.28
71857;BME280;63344;46.980;28.882;2023-04-23T09:28:50;100795.53;;;25.39;30.99
71857;BME280;63344;46.980;28.882;2023-04-23T09:31:23;100783.69;;;25.03;31.71
71857;BME280;63344;46.980;28.882;2023-04-23T09:33:53;100784.66;;;25.02;28.89
71857;BME280;63344;46.980;28.882;2023-04-23T09:36:21;100777.19;;;25.14;28.77
71857;BME280;63344;46.980;28.882;2023-04-23T09:38:55;100782.66;;;24.67;30.21
71857;BME280;63344;46.980;28.882;2023-04-23T09:41:27;100784.00;;;24.53;29.90
71857;BME280;63344;46.980;28.882;2023-04-23T09:44:01;100773.03;;;24.72;29.13
71857;BME280;63344;46.980;28.882;2023-04-23T09:46:40;100770.38;;;25.00;30.65
71857;BME280;63344;46.980;28.882;2023-04-23T09:49:25;100757.66;;;25.74;29.50
71857;BME280;63344;46.980;28.882;2023-04-23T09:51:52;100760.16;;;25.67;26.97
71857;BME280;63344;46.980;28.882;2023-04-23T09:54:22;100756.41;;;25.68;28.51
71857;BME280;63344;46.980;28.882;2023-04-23T09:56:53;100759.31;;;25.84;28.82
71857;BME280;63344;46.980;28.882;2023-04-23T09:59:29;100753.81;;;25.94;28.58
71857;BME280;63344;46.980;28.882;2023-04-23T10:02:14;100744.22;;;26.26;26.88
71857;BME280;63344;46.980;28.882;2023-04-23T10:04:42;100736.44;;;26.13;26.99
71857;BME280;63344;46.980;28.882;2023-04-23T10:07:09;100734.22;;;26.35;27.24
71857;BME280;63344;46.980;28.882;2023-04-23T10:09:46;100732.19;;;26.37;25.79
71857;BME280;63344;46.980;28.882;2023-04-23T10:12:14;100740.56;;;25.99;25.36
71857;BME280;63344;46.980;28.882;2023-04-23T10:15:05;100731.22;;;26.02;26.79
71857;BME280;63344;46.980;28.882;2023-04-23T10:17:34;100726.47;;;26.04;26.82
71857;BME280;63344;46.980;28.882;2023-04-23T10:20:03;100728.72;;;26.27;27.62
71857;BME280;63344;46.980;28.882;2023-04-23T10:22:32;100718.81;;;26.52;25.11
71857;BME280;63344;46.980;28.882;2023-04-23T10:25:06;100719.03;;;26.85;24.42
71857;BME280;63344;46.980;28.882;2023-04-23T10:27:39;100722.91;;;27.16;22.99
71857;BME280;63344;46.980;28.882;2023-04-23T10:30:20;100723.38;;;27.46;22.33
71857;BME280;63344;46.980;28.882;2023-04-23T10:32:49;100713.97;;;27.32;21.82
71857;BME280;63344;46.980;28.882;2023-04-23T10:35:17;100717.63;;;25.66;23.43
71857;BME280;63344;46.980;28.882;2023-04-23T10:37:46;100718.59;;;25.93;23.90
71857;BME280;63344;46.980;28.882;2023-04-23T10:40:28;100718.53;;;26.29;23.35
71857;BME280;63344;46.980;28.882;2023-04-23T10:42:59;100714.63;;;26.92;23.01
71857;BME280;63344;46.980;28.882;2023-04-23T10:45:29;100708.38;;;27.08;21.77
71857;BME280;63344;46.980;28.882;2023-04-23T10:47:57;100706.44;;;26.57;20.93
71857;BME280;63344;46.980;28.882;2023-04-23T10:50:26;100710.00;;;25.88;20.87
71857;BME280;63344;46.980;28.882;2023-04-23T10:52:56;100696.72;;;26.02;21.16
71857;BME280;63344;46.980;28.882;2023-04-23T10:55:30;100708.94;;;25.98;21.71
71857;BME280;63344;46.980;28.882;2023-04-23T10:58:04;100708.69;;;24.35;22.85
71857;BME280;63344;46.980;28.882;2023-04-23T11:03:30;100712.78;;;24.96;22.84
71857;BME280;63344;46.980;28.882;2023-04-23T11:06:02;100705.97;;;25.56;21.49
71857;BME280;63344;46.980;28.882;2023-04-23T11:08:30;100707.13;;;26.07;21.43
71857;BME280;63344;46.980;28.882;2023-04-23T11:11:01;100700.66;;;24.53;22.95
71857;BME280;63344;46.980;28.882;2023-04-23T11:13:33;100710.47;;;23.08;24.13
71857;BME280;63344;46.980;28.882;2023-04-23T11:16:17;100712.09;;;22.28;25.41
71857;BME280;63344;46.980;28.882;2023-04-23T11:19:28;100712.34;;;21.83;26.11
71857;BME280;63344;46.980;28.882;2023-04-23T11:22:34;100718.78;;;21.16;27.21
71857;BME280;63344;46.980;28.882;2023-04-23T11:25:19;100719.31;;;20.76;27.27
71857;BME280;63344;46.980;28.882;2023-04-23T11:27:49;100723.19;;;21.28;28.32
71857;BME280;63344;46.980;28.882;2023-04-23T11:32:55;100738.03;;;23.93;25.06
71857;BME280;63344;46.980;28.882;2023-04-23T11:35:24;100733.81;;;22.99;27.70
71857;BME280;63344;46.980;28.882;2023-04-23T11:38:08;100743.16;;;21.59;30.78
71857;BME280;63344;46.980;28.882;2023-04-23T11:40:40;100738.31;;;20.63;31.84
71857;BME280;63344;46.980;28.882;2023-04-23T11:43:08;100747.06;;;19.84;33.61
71857;BME280;63344;46.980;28.882;2023-04-23T11:45:54;100742.00;;;19.19;34.90
71857;BME280;63344;46.980;28.882;2023-04-23T11:48:37;100750.38;;;18.64;36.44
71857;BME280;63344;46.980;28.882;2023-04-23T11:51:08;100747.13;;;18.21;37.20
71857;BME280;63344;46.980;28.882;2023-04-23T11:53:47;100747.63;;;17.87;37.87
71857;BME280;63344;46.980;28.882;2023-04-23T11:56:31;100744.06;;;17.72;38.23
71857;BME280;63344;46.980;28.882;2023-04-23T11:58:59;100750.38;;;17.59;39.29
71857;BME280;63344;46.980;28.882;2023-04-23T12:06:26;100745.09;;;17.30;40.26
71857;BME280;63344;46.980;28.882;2023-04-23T12:10:03;100735.44;;;17.13;40.58
71857;BME280;63344;46.980;28.882;2023-04-23T12:12:34;100749.34;;;17.05;40.70
71857;BME280;63344;46.980;28.882;2023-04-23T12:15:05;100746.97;;;17.01;41.35
71857;BME280;63344;46.980;28.882;2023-04-23T12:17:33;100749.94;;;16.96;41.73
71857;BME280;63344;46.980;28.882;2023-04-23T12:20:05;100743.22;;;16.89;41.76
71857;BME280;63344;46.980;28.882;2023-04-23T12:22:36;100745.75;;;16.92;42.07
71857;BME280;63344;46.980;28.882;2023-04-23T12:25:04;100747.25;;;16.96;41.38
71857;BME280;63344;46.980;28.882;2023-04-23T12:27:38;100738.25;;;16.97;42.96
71857;BME280;63344;46.980;28.882;2023-04-23T12:30:07;100735.00;;;16.92;43.21
71857;BME280;63344;46.980;28.882;2023-04-23T12:32:36;100734.16;;;16.91;44.21
71857;BME280;63344;46.980;28.882;2023-04-23T12:35:06;100732.69;;;17.00;44.27
71857;BME280;63344;46.980;28.882;2023-04-23T12:37:36;100721.16;;;17.12;43.65
71857;BME280;63344;46.980;28.882;2023-04-23T12:40:03;100724.69;;;17.27;44.00
71857;BME280;63344;46.980;28.882;2023-04-23T12:42:35;100721.06;;;17.41;43.26
71857;BME280;63344;46.980;28.882;2023-04-23T12:45:05;100728.53;;;17.50;43.13
71857;BME280;63344;46.980;28.882;2023-04-23T12:47:33;100720.63;;;17.62;42.61
71857;BME280;63344;46.980;28.882;2023-04-23T12:50:01;100715.03;;;17.65;41.73
71857;BME280;63344;46.980;28.882;2023-04-23T12:52:30;100717.03;;;17.76;41.17
71857;BME280;63344;46.980;28.882;2023-04-23T12:54:57;100713.72;;;17.85;40.46
71857;BME280;63344;46.980;28.882;2023-04-23T12:57:26;100710.09;;;17.99;40.63
71857;BME280;63344;46.980;28.882;2023-04-23T12:59:55;100711.94;;;18.11;40.70
71857;BME280;63344;46.980;28.882;2023-04-23T13:02:23;100706.88;;;18.19;40.23
71857;BME280;63344;46.980;28.882;2023-04-23T13:04:52;100703.25;;;18.20;38.96
71857;BME280;63344;46.980;28.882;2023-04-23T13:07:30;100718.44;;;18.21;38.83
71857;BME280;63344;46.980;28.882;2023-04-23T13:10:00;100712.06;;;18.22;38.77